Time;durP1;ratioP1;P1;durP2;ratioP2;P2;SDS_P1;SDS_P2;PMS_P1;PMS_P2;Temp;Humidity;BMP_temperature;BMP_pressure;BME280_temperature;BME280_humidity;BME280_pressure;Samples;Min_cycle;Max_cycle;Signal;HPM_P1;HPM_P2
2021/01/31 00:02:04;;;;;;;3.03;1.10;;;5.50;87.00;;;;;;5060156;28;20029;-67
2021/01/31 00:04:30;;;;;;;2.88;1.02;;;5.50;86.90;;;;;;5059869;28;20479;-67
2021/01/31 00:06:56;;;;;;;4.97;1.60;;;5.50;87.50;;;;;;5059810;28;20025;-69
2021/01/31 00:09:22;;;;;;;4.40;1.58;;;5.40;88.10;;;;;;5059626;28;20032;-67
2021/01/31 00:11:48;;;;;;;3.10;1.42;;;5.40;87.90;;;;;;5059692;28;20504;-67
2021/01/31 00:14:14;;;;;;;4.13;1.60;;;5.30;87.90;;;;;;5058607;28;20120;-67
2021/01/31 00:16:39;;;;;;;3.70;1.90;;;5.30;88.00;;;;;;5059621;28;20070;-67
2021/01/31 00:19:05;;;;;;;3.13;2.28;;;5.20;87.70;;;;;;5059835;28;20033;-67
2021/01/31 00:21:30;;;;;;;5.50;2.65;;;5.10;87.20;;;;;;5058479;28;20029;-67
2021/01/31 00:23:56;;;;;;;5.10;1.80;;;5.10;87.90;;;;;;5058420;28;20095;-67
2021/01/31 00:26:22;;;;;;;3.17;1.77;;;5.10;87.40;;;;;;5059368;28;20037;-67
2021/01/31 00:28:47;;;;;;;3.70;1.75;;;5.10;86.70;;;;;;5058309;28;20115;-67
2021/01/31 00:31:13;;;;;;;2.20;1.10;;;5.10;87.20;;;;;;5059125;28;20071;-68
2021/01/31 00:33:39;;;;;;;3.28;1.40;;;5.20;86.70;;;;;;5059329;28;20075;-67
2021/01/31 00:36:04;;;;;;;8.20;2.20;;;5.30;87.60;;;;;;5059206;28;20100;-68
2021/01/31 00:38:30;;;;;;;3.35;1.10;;;5.30;87.00;;;;;;5059572;28;20020;-68
2021/01/31 00:40:56;;;;;;;2.88;1.13;;;5.40;87.40;;;;;;5058904;28;20032;-68
2021/01/31 00:43:22;;;;;;;3.10;1.15;;;5.30;87.50;;;;;;5059182;28;20025;-68
2021/01/31 00:45:49;;;;;;;4.18;1.40;;;5.40;88.70;;;;;;5059336;28;20033;-68
2021/01/31 00:48:15;;;;;;;2.45;0.82;;;5.30;88.80;;;;;;5059084;28;20036;-68
2021/01/31 00:50:41;;;;;;;1.98;0.80;;;5.40;89.30;;;;;;5058894;28;20025;-68
2021/01/31 00:53:08;;;;;;;2.42;0.80;;;5.50;88.10;;;;;;5058951;28;20071;-68
2021/01/31 00:55:35;;;;;;;2.53;0.98;;;5.60;89.20;;;;;;5057937;28;20025;-68
2021/01/31 00:58:00;;;;;;;1.70;0.90;;;5.50;90.70;;;;;;5059221;28;20108;-68
2021/01/31 01:00:33;;;;;;;4.32;1.23;;;5.50;91.60;;;;;;5058993;28;20057;-68
2021/01/31 01:02:59;;;;;;;5.45;1.00;;;5.50;92.00;;;;;;5059154;28;20100;-68
2021/01/31 01:05:29;;;;;;;3.08;0.93;;;5.50;92.90;;;;;;5058720;28;20029;-68
2021/01/31 01:07:56;;;;;;;3.38;1.27;;;5.50;93.20;;;;;;5058737;28;20028;-68
2021/01/31 01:10:26;;;;;;;4.18;1.50;;;5.50;93.20;;;;;;5058563;28;20100;-68
2021/01/31 01:12:52;;;;;;;3.67;1.02;;;5.40;93.40;;;;;;5058579;28;20024;-68
2021/01/31 01:15:19;;;;;;;2.05;0.95;;;5.40;93.50;;;;;;5058488;28;20088;-68
2021/01/31 01:17:45;;;;;;;3.38;0.85;;;5.40;93.50;;;;;;5057682;28;20020;-68
2021/01/31 01:20:12;;;;;;;2.38;0.77;;;5.40;93.30;;;;;;5058725;28;20029;-68
2021/01/31 01:22:38;;;;;;;1.77;0.80;;;5.40;93.10;;;;;;5058461;28;20028;-68
2021/01/31 01:25:05;;;;;;;1.73;0.60;;;5.30;92.80;;;;;;5058604;28;20029;-68
2021/01/31 01:27:32;;;;;;;1.60;0.75;;;5.30;92.90;;;;;;5058788;28;20040;-68
2021/01/31 01:29:58;;;;;;;1.13;0.63;;;5.20;92.80;;;;;;5058260;28;20100;-68
2021/01/31 01:32:24;;;;;;;2.85;1.40;;;5.20;93.00;;;;;;5058252;28;20143;-68
2021/01/31 01:34:50;;;;;;;1.20;0.70;;;5.20;92.60;;;;;;5058168;28;20375;-68
2021/01/31 01:37:16;;;;;;;2.80;0.80;;;5.20;92.40;;;;;;5057076;28;20112;-68
2021/01/31 01:39:42;;;;;;;2.28;1.10;;;5.20;92.50;;;;;;5058118;28;20028;-68
2021/01/31 01:42:09;;;;;;;2.17;0.68;;;5.20;92.30;;;;;;5058042;28;20108;-68
2021/01/31 01:44:36;;;;;;;0.95;0.50;;;5.20;91.90;;;;;;5058034;28;20391;-69
2021/01/31 01:47:06;;;;;;;0.98;0.55;;;5.20;91.90;;;;;;5056866;28;20075;-68
2021/01/31 01:49:45;;;;;;;1.95;0.70;;;5.20;91.30;;;;;;5058357;28;20093;-68
2021/01/31 01:52:25;;;;;;;1.10;0.50;;;5.20;91.40;;;;;;5057858;28;20409;-68
2021/01/31 01:55:04;;;;;;;1.75;0.60;;;5.10;91.30;;;;;;5057507;28;20117;-68
2021/01/31 01:57:45;;;;;;;2.22;0.57;;;5.10;91.40;;;;;;5058225;28;20021;-68
2021/01/31 02:00:11;;;;;;;1.27;0.60;;;5.20;91.60;;;;;;5057953;28;20130;-68
2021/01/31 02:03:10;;;;;;;0.77;0.40;;;5.20;92.10;;;;;;5057656;28;20448;-69
2021/01/31 02:05:38;;;;;;;1.38;0.50;;;5.20;92.80;;;;;;5057238;28;20047;-69
2021/01/31 02:08:05;;;;;;;2.65;0.75;;;5.10;94.40;;;;;;5057784;28;20075;-70
2021/01/31 02:10:31;;;;;;;3.00;1.10;;;5.10;94.80;;;;;;5057393;28;20060;-70
2021/01/31 02:13:00;;;;;;;0.70;0.50;;;5.00;95.20;;;;;;5057692;28;20036;-68
2021/01/31 02:15:26;;;;;;;1.08;0.77;;;5.00;94.50;;;;;;5057571;28;20052;-68
2021/01/31 02:18:11;;;;;;;1.20;0.60;;;4.90;91.40;;;;;;5057344;28;20031;-69
2021/01/31 02:21:01;;;;;;;1.67;1.00;;;5.00;90.80;;;;;;5057233;28;20409;-68
2021/01/31 02:23:51;;;;;;;1.15;0.75;;;4.90;90.90;;;;;;5057250;28;20036;-68
2021/01/31 02:26:22;;;;;;;2.13;0.98;;;4.90;91.10;;;;;;5057367;28;20040;-69
2021/01/31 02:28:54;;;;;;;1.30;0.77;;;4.90;89.90;;;;;;5057304;28;20036;-68
2021/01/31 02:31:39;;;;;;;1.75;1.20;;;5.00;90.60;;;;;;5057020;28;20085;-68
2021/01/31 02:34:20;;;;;;;1.80;0.95;;;5.00;89.80;;;;;;5057360;28;20021;-68
2021/01/31 02:36:58;;;;;;;1.92;1.17;;;5.10;89.70;;;;;;5057002;28;20431;-68
2021/01/31 02:39:42;;;;;;;1.40;0.90;;;5.10;90.20;;;;;;5057011;28;20029;-68
2021/01/31 02:42:41;;;;;;;1.08;0.75;;;5.00;91.80;;;;;;5056910;28;20061;-68
2021/01/31 02:45:16;;;;;;;1.20;0.70;;;5.00;92.80;;;;;;5057026;28;20050;-69
2021/01/31 02:47:48;;;;;;;1.15;0.82;;;4.90;94.10;;;;;;5057209;28;20052;-70
2021/01/31 02:50:37;;;;;;;1.05;0.52;;;4.80;95.10;;;;;;5055725;28;20025;-69
2021/01/31 02:53:06;;;;;;;0.70;0.47;;;4.80;95.40;;;;;;5056695;28;20081;-68
2021/01/31 02:55:47;;;;;;;0.75;0.38;;;4.90;93.70;;;;;;5057002;28;20397;-68
2021/01/31 02:58:34;;;;;;;0.85;0.60;;;4.90;94.70;;;;;;5056962;28;20086;-68
2021/01/31 03:01:11;;;;;;;1.10;0.47;;;5.00;93.40;;;;;;5056846;28;20325;-69
2021/01/31 03:03:42;;;;;;;0.55;0.30;;;5.10;93.00;;;;;;5056707;28;20405;-68
2021/01/31 03:06:15;;;;;;;1.60;0.43;;;5.10;94.10;;;;;;5056546;28;20025;-68
2021/01/31 03:08:56;;;;;;;0.40;0.30;;;5.10;94.40;;;;;;5055636;28;20067;-68
2021/01/31 03:11:45;;;;;;;0.63;0.30;;;5.10;93.70;;;;;;5056620;28;20031;-68
2021/01/31 03:14:17;;;;;;;0.20;0.20;;;5.10;93.60;;;;;;5056628;28;20092;-68
2021/01/31 03:16:57;;;;;;;0.68;0.30;;;5.10;91.90;;;;;;5056507;28;20052;-68
2021/01/31 03:19:33;;;;;;;0.65;0.40;;;5.20;92.10;;;;;;5056683;28;20084;-69
2021/01/31 03:22:05;;;;;;;0.68;0.30;;;5.20;92.00;;;;;;5056535;28;20328;-69
2021/01/31 03:24:55;;;;;;;0.55;0.30;;;5.20;92.50;;;;;;5056752;28;20032;-70
2021/01/31 03:27:32;;;;;;;0.57;0.40;;;5.20;93.90;;;;;;5056504;28;20341;-68
2021/01/31 03:29:58;;;;;;;1.20;0.40;;;5.20;94.20;;;;;;5056439;28;20107;-70
2021/01/31 03:32:44;;;;;;;0.50;0.30;;;5.20;94.30;;;;;;5056391;28;20410;-70
2021/01/31 03:35:19;;;;;;;0.20;0.20;;;5.10;95.20;;;;;;5056391;28;20083;-68
2021/01/31 03:37:58;;;;;;;2.05;0.30;;;5.10;93.90;;;;;;5056517;28;20021;-68
2021/01/31 03:40:24;;;;;;;0.50;0.20;;;5.10;94.50;;;;;;5056650;28;20029;-68
2021/01/31 03:42:50;;;;;;;0.75;0.30;;;5.10;95.00;;;;;;5056284;28;20036;-69
2021/01/31 03:45:20;;;;;;;0.82;0.20;;;5.10;94.20;;;;;;5055136;28;20032;-70
2021/01/31 03:47:57;;;;;;;0.90;0.30;;;5.30;94.10;;;;;;5056614;28;20025;-68
2021/01/31 03:50:23;;;;;;;1.35;0.20;;;5.30;94.20;;;;;;5056136;28;20025;-68
2021/01/31 03:52:49;;;;;;;0.32;0.20;;;5.40;91.90;;;;;;5056158;28;20028;-68
2021/01/31 03:55:16;;;;;;;0.20;0.20;;;5.40;90.90;;;;;;5056421;28;20021;-68
2021/01/31 03:57:50;;;;;;;0.13;0.10;;;5.50;91.00;;;;;;5056171;28;20021;-68
2021/01/31 04:00:21;;;;;;;0.10;0.10;;;5.50;91.00;;;;;;5056394;28;20116;-68
2021/01/31 04:02:55;;;;;;;0.45;0.10;;;5.60;90.60;;;;;;5056120;28;20032;-68
2021/01/31 04:05:25;;;;;;;0.55;0.20;;;5.70;90.10;;;;;;5056020;28;20499;-68
2021/01/31 04:07:54;;;;;;;2.55;0.30;;;5.60;91.00;;;;;;5055016;28;20028;-68
2021/01/31 04:10:20;;;;;;;2.05;0.20;;;5.60;90.50;;;;;;5055842;28;20032;-69
2021/01/31 04:12:54;;;;;;;0.35;0.20;;;5.60;91.40;;;;;;5056035;28;20021;-70
2021/01/31 04:15:28;;;;;;;1.00;0.40;;;5.60;91.20;;;;;;5054803;28;20321;-69
2021/01/31 04:17:54;;;;;;;0.40;0.10;;;5.70;90.10;;;;;;5059168;28;20481;-68
2021/01/31 04:20:19;;;;;;;0.30;0.20;;;5.70;90.30;;;;;;5059574;28;20112;-70
2021/01/31 04:22:45;;;;;;;0.15;0.10;;;5.80;89.50;;;;;;5059638;28;20096;-69
2021/01/31 04:25:12;;;;;;;0.57;0.20;;;5.80;90.30;;;;;;5059788;28;20108;-70
2021/01/31 04:27:38;;;;;;;0.73;0.22;;;5.70;91.90;;;;;;5059998;28;20357;-70
2021/01/31 04:30:06;;;;;;;0.63;0.20;;;5.60;93.40;;;;;;5059129;28;20048;-70
2021/01/31 04:32:32;;;;;;;0.10;0.10;;;5.50;94.20;;;;;;5059311;28;20021;-70
2021/01/31 04:34:59;;;;;;;0.15;0.10;;;5.50;93.80;;;;;;5059162;28;20021;-70
2021/01/31 04:37:24;;;;;;;0.88;0.20;;;5.50;94.30;;;;;;5058285;28;20036;-71
2021/01/31 04:39:50;;;;;;;0.47;0.20;;;5.50;95.30;;;;;;5059267;28;20344;-71
2021/01/31 04:42:21;;;;;;;0.95;0.28;;;5.40;95.60;;;;;;5059463;28;20025;-70
2021/01/31 04:44:50;;;;;;;0.20;0.17;;;5.40;95.30;;;;;;5059171;28;20032;-70
2021/01/31 04:47:54;;;;;;;0.30;0.20;;;5.40;95.10;;;;;;5059166;28;20031;-68
2021/01/31 04:50:26;;;;;;;0.80;0.22;;;5.50;92.40;;;;;;5059064;28;20025;-68
2021/01/31 04:53:05;;;;;;;0.35;0.20;;;5.60;91.20;;;;;;5059002;28;20094;-69
2021/01/31 04:55:40;;;;;;;0.43;0.10;;;5.70;91.20;;;;;;5059318;28;20025;-68
2021/01/31 04:58:11;;;;;;;0.30;0.30;;;5.70;91.30;;;;;;5057909;28;20029;-69
2021/01/31 05:00:44;;;;;;;0.40;0.20;;;5.70;91.60;;;;;;5057830;28;20743;-69
2021/01/31 05:03:11;;;;;;;0.50;0.20;;;5.70;91.20;;;;;;5058835;28;20443;-70
2021/01/31 05:05:49;;;;;;;0.22;0.20;;;5.70;91.10;;;;;;5058677;28;20052;-68
2021/01/31 05:08:24;;;;;;;0.77;0.28;;;5.80;90.10;;;;;;5058788;28;20036;-68
2021/01/31 05:10:53;;;;;;;0.45;0.20;;;5.80;91.10;;;;;;5058638;28;20448;-70
2021/01/31 05:13:33;;;;;;;0.30;0.15;;;5.80;92.20;;;;;;5058638;28;20096;-70
2021/01/31 05:16:10;;;;;;;0.70;0.22;;;5.70;92.90;;;;;;5058648;28;20021;-70
2021/01/31 05:18:39;;;;;;;0.47;0.20;;;5.60;92.50;;;;;;5058838;28;20461;-70
2021/01/31 05:21:08;;;;;;;0.10;0.10;;;5.60;92.90;;;;;;5057454;28;20035;-68
2021/01/31 05:23:43;;;;;;;0.47;0.20;;;5.70;91.90;;;;;;5057407;28;20040;-69
2021/01/31 05:26:11;;;;;;;0.10;0.10;;;5.70;92.70;;;;;;5058825;28;20028;-68
2021/01/31 05:28:41;;;;;;;1.88;0.13;;;5.70;92.20;;;;;;5057538;28;20041;-68
2021/01/31 05:31:12;;;;;;;0.13;0.10;;;5.90;90.30;;;;;;5058113;28;20083;-68
2021/01/31 05:33:58;;;;;;;0.10;0.10;;;5.90;89.70;;;;;;5058452;28;20025;-68
2021/01/31 05:36:28;;;;;;;0.10;0.10;;;6.00;90.10;;;;;;5058084;28;20018;-68
2021/01/31 05:38:54;;;;;;;0.30;0.20;;;6.00;90.20;;;;;;5058172;28;20029;-68
2021/01/31 05:41:29;;;;;;;0.25;0.20;;;6.10;89.00;;;;;;5058130;28;20099;-70
2021/01/31 05:44:14;;;;;;;0.30;0.22;;;6.10;90.80;;;;;;5058111;28;20025;-70
2021/01/31 05:46:43;;;;;;;0.10;0.10;;;6.10;90.10;;;;;;5058014;28;20025;-69
2021/01/31 05:49:11;;;;;;;0.17;0.10;;;6.20;90.30;;;;;;5057870;28;20447;-69
2021/01/31 05:51:39;;;;;;;0.50;0.20;;;6.20;90.20;;;;;;5057881;28;20025;-70
2021/01/31 05:54:33;;;;;;;0.38;0.20;;;6.30;90.40;;;;;;5057762;28;20021;-70
2021/01/31 05:56:59;;;;;;;0.10;0.10;;;6.20;91.30;;;;;;5056736;28;20029;-71
2021/01/31 05:59:40;;;;;;;0.43;0.10;;;6.10;93.80;;;;;;5057755;28;20324;-69
2021/01/31 06:02:06;;;;;;;0.10;0.10;;;6.00;94.30;;;;;;5058018;28;20025;-69
2021/01/31 06:04:32;;;;;;;0.55;0.20;;;5.90;95.40;;;;;;5056585;28;20029;-70
2021/01/31 06:07:08;;;;;;;0.10;0.10;;;5.80;95.60;;;;;;5057538;28;20025;-71
2021/01/31 06:09:45;;;;;;;0.22;0.15;;;5.80;95.60;;;;;;5057489;28;20096;-70
2021/01/31 06:12:21;;;;;;;0.10;0.10;;;5.90;93.40;;;;;;5056505;28;20017;-70
2021/01/31 06:14:49;;;;;;;0.10;0.10;;;5.80;94.20;;;;;;5057775;28;20052;-70
2021/01/31 06:17:24;;;;;;;0.10;0.10;;;5.90;93.90;;;;;;5057338;28;20035;-71
2021/01/31 06:20:04;;;;;;;0.10;0.10;;;5.90;93.50;;;;;;5057591;28;20377;-71
2021/01/31 06:22:37;;;;;;;0.10;0.10;;;5.90;94.40;;;;;;5057560;28;20025;-70
2021/01/31 06:25:04;;;;;;;0.40;0.10;;;5.90;93.60;;;;;;5057391;28;20067;-70
2021/01/31 06:27:33;;;;;;;0.93;0.30;;;6.00;92.20;;;;;;5058074;28;20294;-71
2021/01/31 06:30:07;;;;;;;0.60;0.40;;;6.20;91.90;;;;;;5057216;28;20080;-71
2021/01/31 06:32:34;;;;;;;0.63;0.43;;;6.20;92.10;;;;;;5057489;28;20025;-69
2021/01/31 06:35:06;;;;;;;0.50;0.20;;;6.10;93.00;;;;;;5057014;28;20096;-69
2021/01/31 06:38:09;;;;;;;0.63;0.20;;;6.20;93.00;;;;;;5057003;28;20441;-70
2021/01/31 06:41:04;;;;;;;0.30;0.20;;;6.40;92.40;;;;;;5056674;28;20033;-70
2021/01/31 06:43:58;;;;;;;0.10;0.10;;;6.50;90.40;;;;;;5057115;28;20103;-68
2021/01/31 06:46:39;;;;;;;0.30;0.20;;;6.70;88.80;;;;;;5056970;28;20124;-70
2021/01/31 06:49:42;;;;;;;0.15;0.10;;;6.70;89.40;;;;;;5057029;28;20112;-68
2021/01/31 06:52:17;;;;;;;0.40;0.20;;;6.70;90.80;;;;;;5056483;28;20029;-70
2021/01/31 06:54:51;;;;;;;0.10;0.10;;;6.50;93.50;;;;;;5057094;28;20049;-70
2021/01/31 06:57:49;;;;;;;1.77;0.17;;;6.30;95.10;;;;;;5056744;28;20029;-70
2021/01/31 07:00:38;;;;;;;0.10;0.10;;;6.10;95.50;;;;;;5055769;28;20041;-70
2021/01/31 07:03:14;;;;;;;0.28;0.20;;;6.10;95.00;;;;;;5045316;28;20413;-70
2021/01/31 07:05:59;;;;;;;0.20;0.20;;;6.10;94.30;;;;;;5056593;28;20044;-68
2021/01/31 07:09:02;;;;;;;0.10;0.10;;;6.40;91.30;;;;;;5056935;28;20052;-70
2021/01/31 07:11:30;;;;;;;0.10;0.10;;;6.40;94.70;;;;;;5056608;28;20031;-70
2021/01/31 07:14:17;;;;;;;0.10;0.10;;;6.30;95.00;;;;;;5056570;28;20039;-71
2021/01/31 07:17:01;;;;;;;;;;;6.20;94.80;;;;;;5056954;28;20364;-71
2021/01/31 07:19:32;;;;;;;0.20;0.20;;;6.20;93.40;;;;;;5056865;28;19912;-71
2021/01/31 07:22:00;;;;;;;0.43;0.20;;;6.30;93.00;;;;;;5056541;28;20367;-69
2021/01/31 07:24:37;;;;;;;0.40;0.20;;;6.40;91.80;;;;;;5056606;28;20032;-70
2021/01/31 07:27:15;;;;;;;0.47;0.15;;;6.40;92.40;;;;;;5055389;28;20333;-71
2021/01/31 07:30:13;;;;;;;0.57;0.30;;;6.40;93.10;;;;;;5056219;28;20025;-71
2021/01/31 07:32:54;;;;;;;0.30;0.20;;;6.30;94.00;;;;;;5055651;28;20314;-71
2021/01/31 07:35:25;;;;;;;3.42;2.90;;;6.40;91.80;;;;;;5056429;28;20053;-71
2021/01/31 07:38:02;;;;;;;0.13;0.10;;;6.40;92.80;;;;;;5056606;28;20329;-71
2021/01/31 07:40:29;;;;;;;0.30;0.20;;;6.40;93.40;;;;;;5056350;28;20024;-71
2021/01/31 07:42:55;;;;;;;0.70;0.30;;;6.30;94.10;;;;;;5056312;28;20041;-71
2021/01/31 07:45:25;;;;;;;0.20;0.13;;;6.30;94.20;;;;;;5056149;28;20074;-71
2021/01/31 07:48:39;;;;;;;0.60;0.20;;;6.20;93.60;;;;;;5055763;28;20116;-71
2021/01/31 07:51:06;;;;;;;0.20;0.20;;;6.20;92.30;;;;;;5055955;28;20044;-71
2021/01/31 07:53:40;;;;;;;0.38;0.30;;;6.20;92.60;;;;;;5060443;28;20321;-71
2021/01/31 07:56:32;;;;;;;0.30;0.20;;;6.10;93.60;;;;;;5060525;28;20033;-71
2021/01/31 07:59:10;;;;;;;0.40;0.22;;;6.10;93.70;;;;;;5060014;28;20033;-71
2021/01/31 08:01:41;;;;;;;0.40;0.15;;;6.20;93.30;;;;;;5060073;28;20071;-70
2021/01/31 08:04:16;;;;;;;1.08;0.40;;;6.30;92.80;;;;;;5060186;28;20057;-71
2021/01/31 08:06:43;;;;;;;0.13;0.13;;;6.40;92.50;;;;;;5059906;28;20439;-71
2021/01/31 08:09:30;;;;;;;0.45;0.30;;;6.40;93.30;;;;;;5059818;28;20302;-69
2021/01/31 08:12:13;;;;;;;0.55;0.30;;;6.40;92.50;;;;;;5059704;28;20025;-70
2021/01/31 08:15:04;;;;;;;5.35;2.97;;;6.30;93.00;;;;;;5059760;28;20110;-71
2021/01/31 08:17:53;;;;;;;2.47;1.30;;;6.20;94.20;;;;;;5059783;28;20021;-71
2021/01/31 08:20:28;;;;;;;0.82;0.50;;;6.20;94.70;;;;;;5059729;28;20056;-70
2021/01/31 08:22:55;;;;;;;0.22;0.20;;;6.20;93.70;;;;;;5059715;28;20028;-69
2021/01/31 08:26:08;;;;;;;0.28;0.20;;;6.20;93.10;;;;;;5059778;28;20112;-68
2021/01/31 08:28:37;;;;;;;0.38;0.28;;;6.20;92.90;;;;;;5054508;28;20376;-69
2021/01/31 08:31:16;;;;;;;0.47;0.20;;;6.20;92.90;;;;;;5059197;28;20049;-71
2021/01/31 08:33:44;;;;;;;0.88;0.30;;;6.20;93.40;;;;;;5059963;28;20071;-69
2021/01/31 08:36:19;;;;;;;1.00;0.50;;;6.20;93.20;;;;;;5058250;28;20055;-68
2021/01/31 08:38:53;;;;;;;0.70;0.40;;;6.20;92.20;;;;;;5059398;28;20363;-69
2021/01/31 08:41:25;;;;;;;1.05;0.40;;;6.20;92.20;;;;;;5059238;28;20409;-70
2021/01/31 08:43:55;;;;;;;20.15;7.70;;;6.10;92.00;;;;;;5059198;28;20057;-70
2021/01/31 08:46:34;;;;;;;12.63;4.32;;;6.10;92.20;;;;;;5059110;28;20033;-70
2021/01/31 08:49:10;;;;;;;3.88;1.65;;;6.10;92.70;;;;;;5059295;28;20029;-70
2021/01/31 08:51:39;;;;;;;0.88;0.50;;;6.20;92.10;;;;;;5059090;28;20363;-70
2021/01/31 08:54:21;;;;;;;0.93;0.43;;;6.30;91.20;;;;;;5058972;28;20017;-70
2021/01/31 08:57:03;;;;;;;0.13;0.10;;;6.30;91.70;;;;;;5058924;28;20086;-70
2021/01/31 08:59:34;;;;;;;4.25;2.70;;;6.40;90.50;;;;;;5058946;28;20059;-70
2021/01/31 09:02:17;;;;;;;5.13;2.90;;;6.40;90.60;;;;;;5058806;28;20025;-71
2021/01/31 09:05:17;;;;;;;3.65;1.80;;;6.30;91.80;;;;;;5059009;28;20116;-70
2021/01/31 09:07:48;;;;;;;0.88;0.35;;;6.20;93.60;;;;;;5059074;28;20017;-70
2021/01/31 09:10:29;;;;;;;0.40;0.30;;;6.10;94.60;;;;;;5058837;28;20025;-71
2021/01/31 09:13:30;;;;;;;0.30;0.20;;;6.10;94.60;;;;;;5058718;28;20052;-70
2021/01/31 09:16:23;;;;;;;0.43;0.20;;;6.00;95.00;;;;;;5058641;28;20017;-70
2021/01/31 09:19:17;;;;;;;0.10;0.10;;;6.10;93.60;;;;;;5058274;28;20037;-70
2021/01/31 09:21:44;;;;;;;0.10;0.10;;;6.20;93.90;;;;;;5058557;28;20024;-70
2021/01/31 09:24:13;;;;;;;0.05;0.05;;;6.30;92.30;;;;;;5058487;28;20409;-70
2021/01/31 09:26:39;;;;;;;0.88;0.20;;;6.40;92.50;;;;;;5058372;28;20147;-70
2021/01/31 09:29:10;;;;;;;0.50;0.20;;;6.40;91.20;;;;;;5057230;28;20025;-70
2021/01/31 09:31:38;;;;;;;0.17;0.15;;;6.50;90.40;;;;;;5057065;28;20389;-70
2021/01/31 09:34:04;;;;;;;0.40;0.20;;;6.60;93.00;;;;;;5057197;28;20013;-70
2021/01/31 09:36:33;;;;;;;0.65;0.40;;;6.60;93.40;;;;;;5058266;28;20112;-71
2021/01/31 09:39:03;;;;;;;0.30;0.20;;;6.60;94.10;;;;;;5058437;28;20017;-70
2021/01/31 09:41:30;;;;;;;0.93;0.30;;;6.50;95.20;;;;;;5058506;28;20021;-71
2021/01/31 09:44:05;;;;;;;2.20;0.40;;;6.50;95.50;;;;;;5058080;28;20028;-71
2021/01/31 09:46:33;;;;;;;109.30;5.40;;;6.50;96.00;;;;;;5058189;28;20028;-71
2021/01/31 09:49:17;;;;;;;897.17;35.60;;;6.50;96.00;;;;;;5058096;28;20032;-71
2021/01/31 09:51:43;;;;;;;1240.25;52.60;;;6.40;95.80;;;;;;5057986;28;20051;-71
2021/01/31 09:54:20;;;;;;;600.03;24.42;;;6.40;95.90;;;;;;5057845;28;20028;-71
2021/01/31 09:56:54;;;;;;;216.57;10.57;;;6.30;95.80;;;;;;5057672;28;20024;-70
2021/01/31 09:59:29;;;;;;;419.80;15.77;;;6.10;97.00;;;;;;5057880;28;20080;-70
2021/01/31 10:02:19;;;;;;;568.53;29.83;;;6.10;97.60;;;;;;5057649;28;20321;-70
2021/01/31 10:04:53;;;;;;;205.60;9.50;;;6.10;97.80;;;;;;5057642;28;20092;-70
2021/01/31 10:07:44;;;;;;;2.33;1.60;;;6.10;97.20;;;;;;5057825;28;20440;-70
2021/01/31 10:10:35;;;;;;;1.80;1.17;;;6.10;97.10;;;;;;5053235;28;20113;-70
2021/01/31 10:13:41;;;;;;;1.40;0.98;;;6.10;95.90;;;;;;5046520;28;20021;-70
2021/01/31 10:16:22;;;;;;;1.90;0.93;;;6.20;94.50;;;;;;5035543;28;20337;-69
2021/01/31 10:18:48;;;;;;;1.70;1.10;;;6.30;93.40;;;;;;5019118;28;20156;-70
2021/01/31 10:21:30;;;;;;;1.50;1.10;;;6.40;94.10;;;;;;5036642;28;20037;-71
2021/01/31 10:24:16;;;;;;;1.50;1.00;;;6.40;93.90;;;;;;5036325;28;20029;-70
2021/01/31 10:26:42;;;;;;;1.73;0.90;;;6.50;93.70;;;;;;5037351;28;20061;-70
2021/01/31 10:29:09;;;;;;;2.42;1.00;;;6.50;93.90;;;;;;5037259;28;20056;-69
2021/01/31 10:31:39;;;;;;;2.15;1.10;;;6.60;92.60;;;;;;5037078;28;20079;-70
2021/01/31 10:34:10;;;;;;;1.65;1.00;;;6.60;91.80;;;;;;5037207;28;20025;-70
2021/01/31 10:36:44;;;;;;;1.35;0.90;;;6.60;91.60;;;;;;5037414;28;20021;-70
2021/01/31 10:39:30;;;;;;;1.50;0.82;;;6.60;93.00;;;;;;5036145;28;20032;-70
2021/01/31 10:41:58;;;;;;;1.48;0.85;;;6.60;93.50;;;;;;5036948;28;20337;-70
2021/01/31 10:44:26;;;;;;;1.10;0.60;;;6.60;93.50;;;;;;5037065;28;20291;-70
2021/01/31 10:46:53;;;;;;;1.40;0.70;;;6.60;93.20;;;;;;5036952;28;20022;-70
2021/01/31 10:49:19;;;;;;;1.58;0.90;;;6.70;92.00;;;;;;5036905;28;20068;-70
2021/01/31 10:51:45;;;;;;;1.65;0.80;;;6.60;91.40;;;;;;5036966;28;20017;-70
2021/01/31 10:54:13;;;;;;;1.70;1.10;;;6.60;91.40;;;;;;5037055;28;20422;-69
2021/01/31 10:56:39;;;;;;;0.80;0.50;;;6.60;91.60;;;;;;5036841;28;20037;-70
2021/01/31 10:59:05;;;;;;;1.02;0.65;;;6.50;91.30;;;;;;5037064;28;20025;-70
2021/01/31 11:01:31;;;;;;;0.93;0.60;;;6.50;91.00;;;;;;5037060;28;20360;-70
2021/01/31 11:03:57;;;;;;;1.58;0.40;;;6.50;90.80;;;;;;5036724;28;20022;-70
2021/01/31 11:06:23;;;;;;;2.33;0.60;;;6.50;90.10;;;;;;5036720;28;20017;-70
2021/01/31 11:08:50;;;;;;;0.55;0.40;;;6.60;89.80;;;;;;5036778;28;20018;-70
2021/01/31 11:11:16;;;;;;;0.68;0.45;;;6.60;89.40;;;;;;5036611;28;20112;-68
2021/01/31 11:13:42;;;;;;;0.93;0.50;;;6.70;89.60;;;;;;5036668;28;20026;-69
2021/01/31 11:16:08;;;;;;;1.63;0.65;;;6.70;90.20;;;;;;5036586;28;20321;-68
2021/01/31 11:18:33;;;;;;;0.45;0.45;;;6.70;92.90;;;;;;5035865;28;20420;-70
2021/01/31 11:20:59;;;;;;;0.73;0.50;;;6.70;94.10;;;;;;5036566;28;20033;-70
2021/01/31 11:23:25;;;;;;;0.70;0.45;;;6.70;94.80;;;;;;5036599;28;20030;-68
2021/01/31 11:25:51;;;;;;;0.77;0.50;;;6.70;95.00;;;;;;5036963;28;20112;-68
2021/01/31 11:28:17;;;;;;;0.75;0.50;;;6.70;95.60;;;;;;5041143;28;20104;-70
2021/01/31 11:30:44;;;;;;;0.65;0.35;;;6.80;94.90;;;;;;5039199;28;20125;-70
2021/01/31 11:33:10;;;;;;;0.38;0.25;;;6.80;95.00;;;;;;5040613;28;20095;-70
2021/01/31 11:35:37;;;;;;;1.95;0.20;;;6.80;94.10;;;;;;5040470;28;20369;-70
2021/01/31 11:38:04;;;;;;;0.50;0.28;;;6.80;91.50;;;;;;5040519;28;20033;-70
2021/01/31 11:40:29;;;;;;;0.70;0.40;;;7.00;92.10;;;;;;5040694;28;20030;-70
2021/01/31 11:42:55;;;;;;;1.67;0.40;;;7.00;93.10;;;;;;5040390;28;20039;-70
2021/01/31 11:45:24;;;;;;;0.45;0.30;;;7.10;92.70;;;;;;5040299;28;20014;-70
2021/01/31 11:47:50;;;;;;;0.90;0.55;;;7.30;88.50;;;;;;5040379;28;20116;-70
2021/01/31 11:50:17;;;;;;;0.90;0.60;;;7.40;87.90;;;;;;5040200;28;20100;-70
2021/01/31 11:52:42;;;;;;;0.82;0.55;;;7.30;87.10;;;;;;5040350;28;20017;-69
2021/01/31 11:55:10;;;;;;;0.55;0.35;;;7.30;87.90;;;;;;5040632;28;20033;-68
2021/01/31 11:57:37;;;;;;;0.80;0.40;;;7.40;86.90;;;;;;5040149;28;20418;-70
2021/01/31 12:00:05;;;;;;;0.60;0.45;;;7.40;88.70;;;;;;5040068;28;20422;-68
2021/01/31 12:02:31;;;;;;;7.20;3.08;;;7.40;87.40;;;;;;5040093;28;20026;-68
2021/01/31 12:04:58;;;;;;;1.58;0.63;;;7.40;87.70;;;;;;5040064;28;20506;-68
2021/01/31 12:07:23;;;;;;;1.00;0.38;;;7.40;85.60;;;;;;5040048;28;20068;-68
2021/01/31 12:09:49;;;;;;;0.90;0.40;;;7.40;87.10;;;;;;5039832;28;20422;-68
2021/01/31 12:12:15;;;;;;;0.52;0.30;;;7.40;88.40;;;;;;5038865;28;20033;-69
2021/01/31 12:14:41;;;;;;;0.52;0.30;;;7.40;89.70;;;;;;5039813;28;20033;-68
2021/01/31 12:17:07;;;;;;;0.40;0.30;;;7.30;90.50;;;;;;5040044;28;20053;-68
2021/01/31 12:19:33;;;;;;;0.85;0.50;;;7.40;91.60;;;;;;5039698;28;20105;-68
2021/01/31 12:21:58;;;;;;;0.82;0.40;;;7.40;92.80;;;;;;5039714;28;20033;-69
2021/01/31 12:24:24;;;;;;;0.30;0.20;;;7.40;91.00;;;;;;5039733;28;20026;-70
2021/01/31 12:26:51;;;;;;;0.55;0.32;;;7.50;88.00;;;;;;5039804;28;20041;-70
2021/01/31 12:29:18;;;;;;;1.42;0.25;;;7.60;92.80;;;;;;5039482;28;20413;-70
2021/01/31 12:31:43;;;;;;;0.30;0.20;;;7.60;93.70;;;;;;5039371;28;20037;-68
2021/01/31 12:34:09;;;;;;;1.95;0.30;;;7.70;93.60;;;;;;5039694;28;20475;-68
2021/01/31 12:36:36;;;;;;;2.80;0.55;;;7.80;94.80;;;;;;5039228;28;20079;-68
2021/01/31 12:39:04;;;;;;;2.10;0.82;;;7.90;94.90;;;;;;5039071;28;20018;-68
2021/01/31 12:41:30;;;;;;;3.05;2.58;;;8.10;94.90;;;;;;5039304;28;20103;-68
2021/01/31 12:43:57;;;;;;;5.50;4.07;;;8.20;94.30;;;;;;5039420;28;20061;-69
2021/01/31 12:46:24;;;;;;;424.67;23.52;;;8.20;94.10;;;;;;5039171;28;20112;-68
2021/01/31 12:48:50;;;;;;;347.85;20.10;;;8.10;94.50;;;;;;5039304;28;20092;-69
2021/01/31 12:51:15;;;;;;;164.35;14.40;;;8.00;93.70;;;;;;5039142;28;20521;-70
2021/01/31 12:53:41;;;;;;;373.85;22.65;;;8.00;94.20;;;;;;5039123;28;20021;-69
2021/01/31 12:56:08;;;;;;;575.60;30.38;;;7.90;93.40;;;;;;5039419;28;20390;-70
2021/01/31 12:58:33;;;;;;;1999.90;101.57;;;7.70;93.50;;;;;;5039367;28;20048;-68
2021/01/31 13:00:59;;;;;;;1999.90;109.47;;;7.60;93.50;;;;;;5038889;28;20029;-68
2021/01/31 13:03:25;;;;;;;609.13;34.58;;;7.40;93.80;;;;;;5038952;28;20048;-68
2021/01/31 13:05:52;;;;;;;1893.07;96.03;;;7.20;94.10;;;;;;5038772;28;20147;-69
2021/01/31 13:08:17;;;;;;;1457.20;75.60;;;7.00;94.20;;;;;;5039117;28;20322;-70
2021/01/31 13:10:43;;;;;;;1465.05;70.70;;;6.80;94.60;;;;;;5038821;28;20025;-68
2021/01/31 13:13:09;;;;;;;997.55;51.60;;;6.60;95.10;;;;;;5038712;28;20021;-70
2021/01/31 13:15:37;;;;;;;1566.30;73.03;;;6.50;95.80;;;;;;5038613;28;20032;-70
2021/01/31 13:18:03;;;;;;;1375.43;68.00;;;6.50;96.40;;;;;;5038657;28;20093;-70
2021/01/31 13:20:28;;;;;;;1628.15;75.95;;;6.40;96.50;;;;;;5038603;28;20379;-70
2021/01/31 13:22:55;;;;;;;1948.90;93.65;;;6.40;96.50;;;;;;5038781;28;20045;-70
2021/01/31 13:25:21;;;;;;;1703.13;78.85;;;6.40;96.70;;;;;;5038693;28;20045;-70